createdAt,value
2018-11-03T00:00:18.759Z,3.47
2018-11-03T00:02:47.158Z,8.27
2018-11-03T00:05:15.824Z,2.17
2018-11-03T00:07:44.343Z,2.93
2018-11-03T00:10:12.528Z,3.63
2018-11-03T00:12:40.683Z,4.67
2018-11-03T00:15:09.190Z,4.10
2018-11-03T00:17:37.517Z,3.13
2018-11-03T00:20:06.176Z,2.60
2018-11-03T00:22:34.482Z,2.53
2018-11-03T00:25:02.763Z,3.97
2018-11-03T00:27:30.899Z,3.60
2018-11-03T00:29:58.999Z,4.80
2018-11-03T00:32:27.220Z,3.80
2018-11-03T00:34:55.348Z,3.43
2018-11-03T00:37:23.443Z,2.70
2018-11-03T00:39:51.783Z,3.23
2018-11-03T00:42:19.871Z,3.47
2018-11-03T00:44:47.968Z,3.80
2018-11-03T00:47:16.079Z,3.43
2018-11-03T00:49:44.195Z,4.40
2018-11-03T00:52:12.279Z,3.03
2018-11-03T00:54:40.453Z,3.90
2018-11-03T00:57:08.536Z,3.00
2018-11-03T00:59:36.678Z,4.47
2018-11-03T01:02:04.935Z,7.87
2018-11-03T01:04:33.032Z,3.70
2018-11-03T01:07:01.124Z,3.20
2018-11-03T01:09:29.279Z,5.83
2018-11-03T01:11:57.442Z,4.73
2018-11-03T01:14:25.704Z,8.33
2018-11-03T01:16:53.787Z,4.67
2018-11-03T01:19:21.926Z,3.30
2018-11-03T01:21:50.033Z,4.37
2018-11-03T01:24:18.265Z,3.10
2018-11-03T01:26:46.437Z,3.40
2018-11-03T01:29:14.603Z,2.90
2018-11-03T01:31:42.845Z,3.73
2018-11-03T01:34:10.964Z,8.53
2018-11-03T01:36:39.095Z,3.67
2018-11-03T01:39:09.923Z,5.33
2018-11-03T01:41:38.187Z,3.20
2018-11-03T01:44:06.783Z,4.93
2018-11-03T01:46:35.123Z,4.20
2018-11-03T01:49:03.263Z,3.10
2018-11-03T01:51:31.515Z,3.30
2018-11-03T01:53:59.612Z,4.13
2018-11-03T01:56:27.759Z,3.70
2018-11-03T01:58:55.869Z,3.33
2018-11-03T02:01:23.984Z,3.23
2018-11-03T02:03:52.076Z,3.77
2018-11-03T02:06:20.443Z,4.00
2018-11-03T02:08:48.528Z,5.87
2018-11-03T02:11:16.630Z,3.13
2018-11-03T02:13:44.931Z,3.73
2018-11-03T02:16:13.040Z,3.37
2018-11-03T02:18:41.175Z,4.67
2018-11-03T02:21:09.451Z,3.30
2018-11-03T02:23:37.535Z,4.77
2018-11-03T02:26:05.637Z,3.33
2018-11-03T02:28:33.828Z,3.30
2018-11-03T02:31:01.915Z,4.67
2018-11-03T02:33:29.984Z,3.33
2018-11-03T02:35:58.123Z,5.00
2018-11-03T02:38:26.223Z,3.97
2018-11-03T02:40:54.368Z,4.67
2018-11-03T02:43:22.642Z,3.20
2018-11-03T02:45:50.818Z,4.70
2018-11-03T02:48:18.923Z,3.40
2018-11-03T02:50:47.207Z,5.73
2018-11-03T02:53:15.328Z,3.20
2018-11-03T02:55:43.460Z,3.53
2018-11-03T02:58:11.704Z,5.67
2018-11-03T03:00:40.031Z,3.73
2018-11-03T03:03:08.160Z,3.93
2018-11-03T03:05:36.363Z,3.40
2018-11-03T03:08:04.680Z,7.70
2018-11-03T03:10:32.836Z,5.57
2018-11-03T03:13:01.016Z,3.10
2018-11-03T03:15:29.137Z,3.77
2018-11-03T03:17:57.245Z,4.80
2018-11-03T03:20:25.386Z,4.23
2018-11-03T03:22:53.640Z,8.50
2018-11-03T03:25:21.772Z,4.40
2018-11-03T03:27:49.882Z,2.93
2018-11-03T03:30:18.080Z,7.97
2018-11-03T03:32:46.232Z,2.63
2018-11-03T03:35:14.352Z,3.57
2018-11-03T03:37:42.491Z,2.40
2018-11-03T03:40:11.099Z,3.07
2018-11-03T03:42:39.264Z,2.70
2018-11-03T03:45:08.304Z,2.83
2018-11-03T03:47:36.453Z,3.40
2018-11-03T03:50:05.031Z,2.93
2018-11-03T03:52:33.207Z,3.47
2018-11-03T03:55:01.347Z,3.00
2018-11-03T03:57:29.488Z,4.30
2018-11-03T03:59:57.757Z,3.40
2018-11-03T04:02:25.915Z,2.50
2018-11-03T04:04:54.072Z,2.33
2018-11-03T04:07:22.378Z,4.93
2018-11-03T04:09:50.486Z,2.00
2018-11-03T04:12:18.596Z,2.43
2018-11-03T04:14:46.717Z,2.60
2018-11-03T04:17:15.017Z,2.10
2018-11-03T04:19:43.123Z,2.60
2018-11-03T04:22:11.383Z,3.47
2018-11-03T04:24:39.548Z,3.87
2018-11-03T04:27:07.655Z,2.07
2018-11-03T04:29:35.747Z,3.47
2018-11-03T04:32:03.867Z,2.60
2018-11-03T04:34:31.991Z,4.77
2018-11-03T04:37:00.179Z,2.60
2018-11-03T04:39:28.269Z,3.93
2018-11-03T04:41:56.442Z,2.70
2018-11-03T04:44:24.528Z,2.30
2018-11-03T04:46:52.696Z,2.60
2018-11-03T04:49:20.818Z,2.53
2018-11-03T04:51:48.953Z,2.43
2018-11-03T04:54:17.115Z,3.20
2018-11-03T04:56:45.386Z,2.50
2018-11-03T04:59:13.512Z,3.83
2018-11-03T05:01:41.750Z,2.77
2018-11-03T05:04:09.875Z,3.00
2018-11-03T05:06:37.996Z,2.43
2018-11-03T05:09:08.168Z,2.50
2018-11-03T05:11:36.292Z,3.03
2018-11-03T05:14:05.164Z,2.63
2018-11-03T05:16:33.271Z,2.73
2018-11-03T05:19:01.399Z,3.00
2018-11-03T05:21:29.685Z,2.43
2018-11-03T05:23:57.640Z,2.33
2018-11-03T05:26:25.778Z,2.73
2018-11-03T05:28:53.876Z,2.50
2018-11-03T05:31:22.126Z,2.23
2018-11-03T05:33:50.124Z,2.40
2018-11-03T05:36:18.278Z,2.30
2018-11-03T05:38:46.501Z,2.93
2018-11-03T05:41:14.601Z,3.00
2018-11-03T05:43:42.684Z,2.60
2018-11-03T05:46:10.844Z,5.53
2018-11-03T05:48:38.959Z,2.20
2018-11-03T05:51:07.144Z,3.00
2018-11-03T05:53:35.251Z,2.40
2018-11-03T05:56:03.368Z,2.77
2018-11-03T05:58:31.465Z,3.73
2018-11-03T06:00:59.559Z,2.90
2018-11-03T06:03:27.668Z,2.37
2018-11-03T06:05:55.781Z,3.03
2018-11-03T06:08:23.865Z,2.20
2018-11-03T06:10:51.968Z,4.40
2018-11-03T06:13:20.077Z,2.50
2018-11-03T06:15:48.217Z,2.93
2018-11-03T06:18:16.285Z,2.67
2018-11-03T06:20:44.442Z,2.27
2018-11-03T06:23:12.702Z,2.10
2018-11-03T06:25:40.687Z,2.10
2018-11-03T06:28:08.842Z,2.50
2018-11-03T06:30:36.920Z,2.87
2018-11-03T06:33:05.222Z,2.90
2018-11-03T06:35:33.307Z,2.63
2018-11-03T06:38:01.427Z,2.70
2018-11-03T06:40:29.579Z,2.43
2018-11-03T06:42:57.664Z,2.53
2018-11-03T06:45:25.772Z,2.73
2018-11-03T06:47:53.876Z,2.60
2018-11-03T06:50:22.176Z,2.27
2018-11-03T06:52:50.263Z,2.60
2018-11-03T06:55:18.373Z,2.40
2018-11-03T06:57:46.491Z,3.87
2018-11-03T07:00:14.614Z,2.67
2018-11-03T07:02:42.784Z,2.03
2018-11-03T07:05:10.998Z,5.40
2018-11-03T07:07:39.229Z,2.30
2018-11-03T07:10:08.031Z,2.50
2018-11-03T07:12:36.323Z,3.63
2018-11-03T07:15:05.045Z,2.27
2018-11-03T07:17:33.152Z,2.73
2018-11-03T07:20:01.345Z,2.40
2018-11-03T07:22:29.427Z,2.97
2018-11-03T07:24:57.532Z,2.87
2018-11-03T07:27:25.779Z,3.63
2018-11-03T07:29:54.080Z,2.40
2018-11-03T07:32:22.091Z,2.60
2018-11-03T07:34:50.193Z,2.87
2018-11-03T07:37:18.403Z,2.33
2018-11-03T07:39:46.525Z,2.70
2018-11-03T07:42:14.678Z,2.70
2018-11-03T07:44:42.824Z,2.57
2018-11-03T07:47:10.995Z,2.10
2018-11-03T07:49:39.137Z,2.13
2018-11-03T07:52:07.266Z,2.40
2018-11-03T07:54:35.466Z,2.93
2018-11-03T07:57:03.569Z,2.33
2018-11-03T07:59:31.682Z,2.30
2018-11-03T08:02:00.628Z,3.17
2018-11-03T08:04:28.816Z,3.50
2018-11-03T08:06:56.923Z,3.20
2018-11-03T08:09:27.263Z,2.70
2018-11-03T08:11:55.463Z,2.73
2018-11-03T08:14:23.960Z,2.50
2018-11-03T08:16:52.096Z,3.10
2018-11-03T08:19:21.825Z,3.40
2018-11-03T08:21:49.980Z,2.70
2018-11-03T08:24:18.075Z,2.50
2018-11-03T08:26:46.571Z,2.90
2018-11-03T08:29:14.691Z,2.90
2018-11-03T08:31:42.936Z,4.03
2018-11-03T08:34:10.947Z,3.10
2018-11-03T08:36:39.108Z,3.27
2018-11-03T08:39:07.938Z,2.80
2018-11-03T08:41:36.050Z,3.93
2018-11-03T08:44:04.219Z,3.37
2018-11-03T08:46:32.355Z,2.87
2018-11-03T08:49:00.664Z,2.80
2018-11-03T08:51:28.627Z,3.30
2018-11-03T08:53:56.751Z,3.43
2018-11-03T08:56:24.891Z,3.03
2018-11-03T08:58:53.056Z,3.27
2018-11-03T09:01:27.882Z,2.83
2018-11-03T09:03:55.976Z,2.90
2018-11-03T09:06:24.118Z,2.50
2018-11-03T09:08:52.236Z,2.90
2018-11-03T09:11:20.312Z,2.43
2018-11-03T09:13:48.461Z,2.93
2018-11-03T09:16:16.594Z,2.60
2018-11-03T09:18:44.764Z,3.10
2018-11-03T09:21:12.836Z,3.07
2018-11-03T09:23:40.952Z,2.43
2018-11-03T09:26:09.051Z,2.67
2018-11-03T09:28:37.181Z,3.77
2018-11-03T09:31:05.308Z,3.50
2018-11-03T09:33:33.433Z,2.60
2018-11-03T09:36:01.544Z,2.50
2018-11-03T09:38:29.749Z,2.60
2018-11-03T09:40:57.887Z,2.83
2018-11-03T09:43:26.054Z,3.40
2018-11-03T09:45:54.143Z,3.03
2018-11-03T09:48:22.298Z,6.63
2018-11-03T09:50:50.401Z,2.50
2018-11-03T09:53:18.631Z,3.53
2018-11-03T09:55:46.790Z,2.63
2018-11-03T09:58:14.906Z,2.50
2018-11-03T10:00:43.001Z,2.80
2018-11-03T10:03:11.128Z,2.73
2018-11-03T10:05:39.226Z,2.17
2018-11-03T10:08:07.320Z,2.67
2018-11-03T10:10:35.448Z,2.90
2018-11-03T10:13:03.566Z,2.43
2018-11-03T10:15:31.651Z,2.80
2018-11-03T10:17:59.784Z,2.50
2018-11-03T10:20:27.907Z,2.60
2018-11-03T10:22:56.178Z,2.80
2018-11-03T10:25:24.143Z,2.40
2018-11-03T10:27:52.252Z,3.13
2018-11-03T10:30:20.363Z,3.00
2018-11-03T10:32:48.458Z,2.50
2018-11-03T10:35:16.609Z,2.50
2018-11-03T10:37:44.921Z,2.37
2018-11-03T10:40:14.508Z,2.67
2018-11-03T10:42:42.920Z,2.23
2018-11-03T10:45:12.303Z,2.50
2018-11-03T10:47:40.736Z,2.37
2018-11-03T10:50:10.382Z,2.30
2018-11-03T10:52:39.166Z,2.30
2018-11-03T10:55:07.976Z,2.30
2018-11-03T10:57:36.104Z,2.60
2018-11-03T11:00:05.244Z,2.70
2018-11-03T11:02:38.700Z,2.00
2018-11-03T11:05:12.374Z,2.37
2018-11-03T11:07:45.962Z,2.40
2018-11-03T11:10:19.227Z,2.50
2018-11-03T11:12:49.130Z,2.47
2018-11-03T11:15:17.284Z,2.40
2018-11-03T11:17:45.405Z,2.10
2018-11-03T11:20:13.523Z,1.60
2018-11-03T11:22:41.697Z,2.10
2018-11-03T11:25:11.132Z,2.10
2018-11-03T11:27:39.112Z,1.83
2018-11-03T11:30:09.128Z,1.50
2018-11-03T11:32:37.333Z,1.37
2018-11-03T11:35:05.764Z,1.20
2018-11-03T11:37:33.872Z,2.73
2018-11-03T11:40:02.018Z,1.40
2018-11-03T11:42:30.467Z,1.27
2018-11-03T11:44:58.627Z,3.13
2018-11-03T11:47:26.852Z,8.53
2018-11-03T11:49:54.999Z,6.80
2018-11-03T11:52:23.164Z,7.53
2018-11-03T11:54:51.362Z,8.80
2018-11-03T11:57:19.396Z,19.03
2018-11-03T11:59:47.499Z,8.97
2018-11-03T12:02:15.626Z,9.63
2018-11-03T12:04:43.712Z,8.77
2018-11-03T12:07:11.824Z,10.10
2018-11-03T12:09:39.933Z,11.27
2018-11-03T12:12:08.035Z,11.83
2018-11-03T12:14:36.147Z,7.17
2018-11-03T12:17:04.461Z,9.93
2018-11-03T12:19:32.583Z,9.17
2018-11-03T12:22:00.728Z,8.60
2018-11-03T12:24:28.824Z,8.50
2018-11-03T12:26:56.921Z,10.00
2018-11-03T12:29:25.009Z,8.17
2018-11-03T12:31:53.159Z,8.07
2018-11-03T12:34:21.264Z,8.10
2018-11-03T12:36:49.418Z,11.03
2018-11-03T12:39:17.511Z,9.87
2018-11-03T12:41:45.628Z,9.00
2018-11-03T12:44:13.715Z,8.30
2018-11-03T12:46:41.923Z,10.27
2018-11-03T12:49:10.062Z,7.00
2018-11-03T12:51:38.188Z,12.87
2018-11-03T12:54:06.320Z,7.93
2018-11-03T12:56:34.474Z,8.70
2018-11-03T12:59:02.575Z,8.23
2018-11-03T13:01:30.663Z,9.23
2018-11-03T13:03:58.785Z,8.60
2018-11-03T13:06:26.899Z,9.13
2018-11-03T13:08:55.019Z,6.90
2018-11-03T13:11:23.133Z,6.40
2018-11-03T13:13:51.220Z,6.00
2018-11-03T13:16:19.336Z,8.57
2018-11-03T13:18:47.444Z,6.03
2018-11-03T13:21:15.559Z,8.37
2018-11-03T13:23:43.679Z,10.20
2018-11-03T13:26:11.775Z,6.30
2018-11-03T13:28:39.923Z,7.63
2018-11-03T13:31:08.012Z,4.87
2018-11-03T13:33:36.162Z,7.63
2018-11-03T13:36:04.225Z,6.20
2018-11-03T13:38:32.342Z,7.37
2018-11-03T13:41:00.503Z,10.40
2018-11-03T13:43:28.568Z,7.70
2018-11-03T13:45:56.679Z,12.00
2018-11-03T13:48:24.748Z,9.43
2018-11-03T13:50:52.858Z,8.73
2018-11-03T13:53:20.950Z,10.20
2018-11-03T13:55:49.068Z,18.93
2018-11-03T13:58:18.004Z,9.10
2018-11-03T14:00:46.103Z,16.37
2018-11-03T14:03:14.221Z,17.80
2018-11-03T14:05:42.334Z,17.83
2018-11-03T14:08:10.449Z,10.00
2018-11-03T14:10:38.523Z,10.33
2018-11-03T14:13:06.629Z,13.53
2018-11-03T14:15:34.739Z,10.77
2018-11-03T14:18:02.831Z,15.27
2018-11-03T14:20:30.948Z,9.03
2018-11-03T14:22:59.067Z,12.03
2018-11-03T14:25:27.151Z,9.63
2018-11-03T14:27:55.274Z,10.23
2018-11-03T14:30:23.371Z,9.80
2018-11-03T14:32:51.490Z,10.80
2018-11-03T14:35:19.584Z,9.07
2018-11-03T14:37:47.707Z,11.20
2018-11-03T14:40:16.708Z,9.63
2018-11-03T14:42:45.380Z,11.80
2018-11-03T14:45:14.396Z,14.90
2018-11-03T14:47:42.472Z,12.50
2018-11-03T14:50:10.677Z,11.07
2018-11-03T14:52:39.986Z,11.13
2018-11-03T14:55:08.691Z,13.20
2018-11-03T14:57:36.792Z,14.30
2018-11-03T15:00:07.656Z,14.73
2018-11-03T15:02:35.779Z,13.87
2018-11-03T15:05:03.958Z,17.10
2018-11-03T15:07:32.052Z,19.10
2018-11-03T15:10:00.158Z,16.27
2018-11-03T15:12:28.285Z,19.03
2018-11-03T15:14:56.413Z,16.13
2018-11-03T15:17:24.530Z,15.97
2018-11-03T15:19:52.615Z,14.40
2018-11-03T15:22:20.821Z,15.57
2018-11-03T15:24:48.923Z,15.50
2018-11-03T15:27:17.023Z,14.77
2018-11-03T15:29:45.126Z,37.17
2018-11-03T15:32:13.284Z,15.20
2018-11-03T15:34:41.377Z,16.03
2018-11-03T15:37:09.464Z,20.90
2018-11-03T15:39:37.636Z,16.57
2018-11-03T15:42:05.764Z,23.23
2018-11-03T15:44:35.865Z,16.20
2018-11-03T15:47:03.998Z,15.80
2018-11-03T15:49:32.156Z,17.00
2018-11-03T15:52:00.285Z,12.87
2018-11-03T15:54:28.391Z,20.63
2018-11-03T15:56:56.499Z,15.37
2018-11-03T15:59:24.619Z,14.63
2018-11-03T16:01:52.707Z,17.60
2018-11-03T16:04:20.820Z,16.93
2018-11-03T16:06:48.947Z,17.17
2018-11-03T16:09:17.066Z,19.10
2018-11-03T16:11:45.162Z,17.53
2018-11-03T16:14:13.312Z,26.90
2018-11-03T16:16:41.420Z,27.00
2018-11-03T16:19:09.556Z,86.33
2018-11-03T16:21:37.779Z,30.23
2018-11-03T16:24:05.952Z,21.13
2018-11-03T16:26:34.076Z,21.50
2018-11-03T16:29:02.213Z,23.67
2018-11-03T16:31:30.335Z,25.60
2018-11-03T16:33:58.446Z,20.30
2018-11-03T16:36:26.590Z,18.53
2018-11-03T16:38:54.689Z,17.80
2018-11-03T16:41:22.831Z,14.63
2018-11-03T16:43:51.036Z,16.93
2018-11-03T16:46:19.124Z,11.60
2018-11-03T16:48:47.217Z,10.87
2018-11-03T16:51:15.331Z,8.00
2018-11-03T16:53:43.520Z,9.40
2018-11-03T16:56:11.655Z,9.57
2018-11-03T16:58:39.933Z,8.10
2018-11-03T17:01:08.071Z,9.17
2018-11-03T17:03:36.240Z,5.43
2018-11-03T17:06:04.468Z,9.37
2018-11-03T17:08:32.564Z,6.30
2018-11-03T17:11:00.920Z,8.63
2018-11-03T17:13:29.024Z,10.20
2018-11-03T17:15:57.152Z,9.80
2018-11-03T17:18:25.283Z,6.33
2018-11-03T17:20:53.371Z,8.60
2018-11-03T17:23:21.526Z,6.50
2018-11-03T17:25:49.606Z,4.73
2018-11-03T17:28:17.711Z,6.13
2018-11-03T17:30:45.843Z,5.37
2018-11-03T17:33:13.955Z,6.40
2018-11-03T17:35:42.104Z,12.63
2018-11-03T17:38:10.203Z,6.20
2018-11-03T17:40:38.323Z,6.60
2018-11-03T17:43:06.451Z,4.83
2018-11-03T17:45:34.539Z,3.60
2018-11-03T17:48:02.647Z,4.50
2018-11-03T17:50:30.836Z,8.33
2018-11-03T17:52:58.966Z,5.80
2018-11-03T17:55:27.095Z,4.00
2018-11-03T17:57:55.219Z,6.10
2018-11-03T18:00:25.071Z,8.23
2018-11-03T18:02:53.583Z,9.33
2018-11-03T18:05:21.711Z,4.50
2018-11-03T18:07:49.790Z,4.63
2018-11-03T18:10:17.940Z,4.20
2018-11-03T18:12:46.035Z,7.83
2018-11-03T18:15:14.127Z,8.80
2018-11-03T18:17:42.773Z,5.07
2018-11-03T18:20:11.280Z,4.70
2018-11-03T18:22:39.555Z,4.63
2018-11-03T18:27:42.323Z,5.20
2018-11-03T18:30:11.460Z,3.83
2018-11-03T18:32:40.136Z,6.13
2018-11-03T18:35:08.272Z,5.13
2018-11-03T18:37:36.407Z,3.77
2018-11-03T18:40:05.156Z,4.40
2018-11-03T18:42:33.331Z,4.37
2018-11-03T18:45:01.454Z,6.00
2018-11-03T18:47:29.595Z,3.47
2018-11-03T18:49:57.739Z,5.70
2018-11-03T18:52:25.843Z,3.33
2018-11-03T18:54:53.972Z,5.60
2018-11-03T18:57:22.079Z,4.60
2018-11-03T18:59:50.196Z,5.53
2018-11-03T19:02:18.369Z,4.97
2018-11-03T19:04:46.421Z,5.30
2018-11-03T19:07:14.616Z,8.37
2018-11-03T19:09:42.727Z,4.53
2018-11-03T19:12:10.853Z,3.33
2018-11-03T19:14:38.966Z,4.53
2018-11-03T19:17:07.125Z,5.07
2018-11-03T19:19:35.179Z,6.40
2018-11-03T19:22:03.317Z,3.37
2018-11-03T19:24:31.424Z,3.57
2018-11-03T19:26:59.668Z,2.87
2018-11-03T19:29:34.631Z,3.57
2018-11-03T19:32:02.719Z,3.53
2018-11-03T19:34:30.826Z,2.83
2018-11-03T19:36:58.915Z,2.87
2018-11-03T19:39:27.035Z,3.47
2018-11-03T19:41:55.160Z,3.83
2018-11-03T19:44:23.267Z,3.57
2018-11-03T19:46:51.379Z,3.73
2018-11-03T19:49:19.524Z,9.70
2018-11-03T19:51:47.844Z,5.30
2018-11-03T19:54:15.827Z,3.30
2018-11-03T19:56:43.972Z,3.13
2018-11-03T19:59:12.397Z,3.10
2018-11-03T20:01:40.544Z,2.77
2018-11-03T20:04:08.628Z,3.43
2018-11-03T20:06:36.771Z,3.30
2018-11-03T20:09:06.567Z,5.73
2018-11-03T20:11:34.787Z,3.90
2018-11-03T20:14:03.103Z,3.00
2018-11-03T20:16:31.200Z,2.67
2018-11-03T20:18:59.316Z,3.80
2018-11-03T20:21:27.599Z,8.80
2018-11-03T20:23:55.882Z,6.07
2018-11-03T20:26:24.249Z,4.83
2018-11-03T20:28:52.514Z,4.07
2018-11-03T20:31:20.679Z,2.63
2018-11-03T20:33:48.759Z,2.93
2018-11-03T20:36:16.899Z,3.33
2018-11-03T20:38:45.043Z,3.73
2018-11-03T20:41:13.164Z,4.00
2018-11-03T20:43:41.243Z,4.03
2018-11-03T20:46:09.377Z,3.80
2018-11-03T20:48:37.495Z,5.20
2018-11-03T20:51:08.482Z,5.10
2018-11-03T20:53:37.047Z,6.47
2018-11-03T20:56:05.704Z,11.17
2018-11-03T20:58:34.168Z,6.17
2018-11-03T21:01:02.490Z,8.13
2018-11-03T21:03:30.620Z,7.00
2018-11-03T21:05:58.795Z,6.83
2018-11-03T21:08:26.932Z,9.23
2018-11-03T21:10:55.132Z,10.47
2018-11-03T21:13:23.259Z,11.43
2018-11-03T21:15:51.372Z,12.90
2018-11-03T21:18:19.559Z,12.07
2018-11-03T21:20:47.660Z,12.07
2018-11-03T21:23:15.875Z,9.63
2018-11-03T21:25:44.016Z,18.03
2018-11-03T21:28:12.213Z,10.97
2018-11-03T21:30:40.339Z,16.27
2018-11-03T21:33:08.618Z,12.10
2018-11-03T21:35:36.604Z,12.87
2018-11-03T21:38:04.825Z,16.17
2018-11-03T21:40:32.927Z,14.13
2018-11-03T21:43:01.041Z,25.33
2018-11-03T21:45:29.168Z,12.40
2018-11-03T21:47:57.379Z,10.80
2018-11-03T21:50:25.504Z,13.77
2018-11-03T21:52:53.623Z,10.40
2018-11-03T21:55:21.701Z,14.90
2018-11-03T21:57:49.864Z,11.93
2018-11-03T22:00:17.944Z,12.80
2018-11-03T22:02:46.079Z,14.53
2018-11-03T22:05:14.539Z,12.10
2018-11-03T22:07:43.548Z,13.10
2018-11-03T22:10:11.826Z,12.10
2018-11-03T22:12:40.815Z,13.30
2018-11-03T22:15:09.392Z,14.10
2018-11-03T22:17:37.819Z,17.20
2018-11-03T22:20:07.035Z,16.43
2018-11-03T22:22:35.470Z,14.73
2018-11-03T22:25:03.624Z,16.40
2018-11-03T22:27:31.740Z,15.50
2018-11-03T22:29:59.822Z,15.70
2018-11-03T22:32:27.964Z,18.40
2018-11-03T22:34:56.052Z,16.87
2018-11-03T22:37:24.168Z,12.97
2018-11-03T22:39:52.386Z,13.87
2018-11-03T22:42:20.501Z,17.03
2018-11-03T22:44:48.592Z,13.30
2018-11-03T22:47:16.705Z,13.43
2018-11-03T22:49:44.827Z,15.07
2018-11-03T22:52:12.972Z,16.33
2018-11-03T22:54:41.120Z,16.47
2018-11-03T22:57:09.360Z,18.00
2018-11-03T22:59:37.339Z,13.03
2018-11-03T23:02:05.598Z,14.40
2018-11-03T23:04:33.694Z,14.30
2018-11-03T23:07:01.796Z,13.70
2018-11-03T23:09:29.902Z,14.93
2018-11-03T23:11:58.053Z,17.70
2018-11-03T23:14:26.321Z,18.20
2018-11-03T23:16:54.420Z,14.77
2018-11-03T23:19:22.555Z,13.30
2018-11-03T23:21:50.700Z,15.10
2018-11-03T23:24:18.837Z,15.83
2018-11-03T23:26:46.927Z,17.50
2018-11-03T23:29:15.041Z,11.70
2018-11-03T23:31:43.148Z,16.60
2018-11-03T23:34:11.458Z,15.10
2018-11-03T23:36:39.572Z,15.63
2018-11-03T23:39:09.119Z,13.83
2018-11-03T23:41:37.385Z,12.83
2018-11-03T23:44:05.627Z,13.63
2018-11-03T23:46:33.712Z,15.73
2018-11-03T23:49:01.910Z,14.83
2018-11-03T23:51:29.959Z,15.57
2018-11-03T23:56:32.644Z,14.50
2018-11-03T23:59:00.833Z,14.03
